Terminal Aerodrome Forecast
Issued by NWS Binghamton, NY

Home | Current Version | Previous Version | Text Only | Print | Product List | Glossary On
Versions: 1 2 3 4 5 6 7 8 9 10 11 12 13 14 15 16 17 18
000
FTUS41 KBGM 181100
TAFSYR
TAF
KSYR 181137Z 1812/1912 VRB04KT P6SM SCT015 BKN030
     FM181300 33005KT P6SM OVC015
     FM181600 35010KT P6SM SCT025 BKN050
     FM182300 02004KT P6SM SKC=

USA.gov is the U.S. government's official web portal to all federal, state and local government web resources and services.